Marathon, FL

11:17 PM EDT on September 23, 2014 (GMT -0400)
APRSWXNET Marathon FL US | Change Station
CLOSE
Current Station
Personal Weather Station
Location: Marathon, FL
Elevation: 13 ft
Nearby Weather Stations

Elev 13 ft 24.76 °N, 80.96 °W | Updated 539 days ago

Thunderstorm
Thunderstorm
82 °F
Feels Like 88 °F
N
16
Wind Variable Wind from East
Gusts 20 mph

Today
High -- | Low -- °F
--% Chance of Precip.
Yesterday
High -- | Low -- °F
Precip. -- in
7:12 AM 7:19 PM
Waning Crescent, 0% visible
Pressure 29.97 in
Visibility 10.0 miles
Clouds Few 2600 ft
Scattered Clouds 3300 ft
Heat Index 88 °F
Dew Point 73 °F
Humidity 71%
Rainfall 0.08 in
Snow Depth Not available.
UV 0 out of 12
Pollen .50 out of 12
Air Quality Not available.
Flu Activity Not available.
METAR KNQX 240253Z AUTO 04005KT 10SM FEW026 SCT033 27/24 A2997 RMK AO2 SLP148 60017 T02670244 50007 TSNO $

More Conditions Fewer Conditions

Pressure 29.97 in
Visibility 10.0 miles
Clouds Few 2600 ft
Scattered Clouds 3300 ft
Heat Index 88 °F
Dew Point 73 °F
Humidity 71%
Rainfall 0.08 in
Snow Depth Not available.
UV 0 out of 12
Pollen .50 out of 12
Air Quality Not available.
Flu Activity Not available.
METAR KNQX 240253Z AUTO 04005KT 10SM FEW026 SCT033 27/24 A2997 RMK AO2 SLP148 60017 T02670244 50007 TSNO $

More Conditions Fewer Conditions

Nowcast | as of 10:54 PM EDT on September 23, 2014

Through midnight...scattered showers and isolated thunderstorms will continue to develop and move northwestward near 10 mph across the eastern Florida Straits...Hawk Channel...a good portion of the Upper Keys island chain...and into Florida Bay. Mariners and motorists in the path of the stronger showers will encounter brief moderate to heavy rainfall accompanied by visibility less than 2 miles...wind gusts near 25 mph...and occasional strikes. Some locations in the Upper Keys may receive an additional one quarter of an inch of rainfall from the heaviest showers.

×

10-Day Weather Forecast

Almanac

Astronomy

Sep. 23, 2014 Rise Set
Actual Time 7:12 AM EDT 7:19 PM EDT
Civil Twilight 6:50 AM EDT 7:41 PM EDT
Nautical Twilight 6:23 AM EDT 8:08 PM EDT
Astronomical Twilight 5:56 AM EDT 8:34 PM EDT
Moon 6:37 AM EDT (9/23) 6:58 PM EDT (9/23)
Length of Visible Light 12h 51m
Length of Day
12h 06m
Tomorrow will be 1m 26s shorter.
Waning Crescent, 0% of the Moon is Illuminated
Today
Waning Crescent
Sep 24
New
Oct 1
First Quarter
Oct 8
Full
Oct 15
Last Quarter

Today's Extremes

State Highs State Lows

Community

WunderPhotos

Upload Photos

1,755,877 photos uploaded!

WunderBlogs® & News

Nearby

Snow Depth

Station Depth Elevation
No new snow has been reported.

Earthquake Activity

City Distance Mag. Time & Date
No recent earthquake activity has been reported nearby.
Minimum magnitude displayed is 2.5.

Coastal Water Temperatures

Place Temperature
Vaca Key, FL 84.9 °F
Key West, FL 84.9 °F

Nearby Weather Stations